^^
Your Local Weather - Clay, NY Station Historical Data
Daily Summary for March 24, 2017 Units:  Metric    English   Both
« Previous Day
Next Day »
Daily Weekly Monthly Yearly Custom
  High: Low: Average:
Temperature: 7.8 °C -1.8 °C 2.9 °C
Dew Point: 3.4 °C -12.5 °C -2.5 °C
Humidity: 90% 37% 70%
Wind Speed: 8km/h 0km/h 1.8km/h
Wind Gust: 14.5km/h - -
Wind- - SE
Pressure: 1028.7 hPa 1013.1 hPa -
Precipitation: 4.06 mm    
Historical Graphs
 
 
Tabular Data for March 24, 2017
Time Temperature Dew Point Pressure Wind Wind Speed Wind Gust Humidity Rainfall Rate (Hourly) solar
00:04 -1.8 °C -11.9 °C 1028.7 hPa East 1.6 km/h 3.2 km/h 46% 0 mm 0 W/m2
00:10 -1.7 °C -12.1 °C 1028.7 hPa ENE 3.2 km/h 3.2 km/h 45% 0 mm 0 W/m2
00:16 -1.7 °C -12.3 °C 1028.7 hPa East 1.6 km/h 3.2 km/h 44% 0 mm 0 W/m2
00:22 -1.7 °C -12.1 °C 1028.3 hPa ENE 1.6 km/h 8 km/h 45% 0 mm 0 W/m2
00:28 -1.6 °C -11.9 °C 1028 hPa East 3.2 km/h 8 km/h 45% 0 mm 0 W/m2
00:34 -1.5 °C -11.9 °C 1028 hPa East 1.6 km/h 3.2 km/h 45% 0 mm 0 W/m2
00:39 -1.5 °C -12.2 °C 1028 hPa East 3.2 km/h 3.2 km/h 44% 0 mm 0 W/m2
00:46 -1.3 °C -12.3 °C 1028 hPa East 3.2 km/h 3.2 km/h 43% 0 mm 0 W/m2
00:52 -1.2 °C -12.5 °C 1028.3 hPa East 1.6 km/h 3.2 km/h 42% 0 mm 0 W/m2
00:58 -1.2 °C -11.4 °C 1028 hPa East 1.6 km/h 4.8 km/h 46% 0 mm 0 W/m2
01:04 -1.2 °C -11.7 °C 1028 hPa ENE 3.2 km/h 4.8 km/h 45% 0 mm 0 W/m2
01:10 -1.1 °C -12.4 °C 1028 hPa ENE 4.8 km/h 6.4 km/h 42% 0 mm 0 W/m2
01:16 -0.9 °C -12.3 °C 1028 hPa East 4.8 km/h 6.4 km/h 42% 0 mm 0 W/m2
01:22 -0.9 °C -12.3 °C 1028 hPa SE 3.2 km/h 3.2 km/h 42% 0 mm 0 W/m2
01:28 -0.9 °C -11.9 °C 1028.3 hPa ENE 3.2 km/h 3.2 km/h 43% 0 mm 0 W/m2
01:34 -0.9 °C -12 °C 1028.3 hPa ENE 1.6 km/h 1.6 km/h 43% 0 mm 0 W/m2
01:40 -1 °C -11.2 °C 1028 hPa ENE 1.6 km/h 1.6 km/h 46% 0 mm 0 W/m2
01:46 -1.1 °C -11.8 °C 1027.3 hPa ENE 3.2 km/h 4.8 km/h 44% 0 mm 0 W/m2
01:52 -1.1 °C -11.3 °C 1027 hPa East 3.2 km/h 3.2 km/h 46% 0 mm 0 W/m2
01:58 -1.2 °C -10.6 °C 1027 hPa East 3.2 km/h 4.8 km/h 49% 0 mm 0 W/m2
02:04 -1.1 °C -10.5 °C 1027 hPa SE 1.6 km/h 4.8 km/h 49% 0 mm 0 W/m2
02:10 -0.9 °C -11.1 °C 1027 hPa ENE 1.6 km/h 1.6 km/h 46% 0 mm 0 W/m2
02:16 -0.8 °C -10.4 °C 1027 hPa Calm   1.6 km/h 48% 0 mm 0 W/m2
02:22 -0.8 °C -10.5 °C 1026.6 hPa East 1.6 km/h 4.8 km/h 48% 0 mm 0 W/m2
02:28 -0.9 °C -9.5 °C 1026.3 hPa East 1.6 km/h 4.8 km/h 52% 0 mm 0 W/m2
02:34 -0.8 °C -10.2 °C 1026.3 hPa East 1.6 km/h 1.6 km/h 49% 0 mm 0 W/m2
02:40 -0.7 °C -10.1 °C 1026.3 hPa East 1.6 km/h 1.6 km/h 49% 0 mm 0 W/m2
02:46 -0.4 °C -10.4 °C 1026.6 hPa East 1.6 km/h 4.8 km/h 47% 0 mm 0 W/m2
02:52 -0.5 °C -10.4 °C 1027 hPa East 1.6 km/h 1.6 km/h 47% 0 mm 0 W/m2
02:58 -0.6 °C -8.7 °C 1026.6 hPa East 1.6 km/h 1.6 km/h 54% 0 mm 0 W/m2
03:04 -0.6 °C -8.3 °C 1026.6 hPa ENE 1.6 km/h 4.8 km/h 56% 0 mm 0 W/m2
03:10 -0.7 °C -8.7 °C 1026.3 hPa ENE 1.6 km/h 3.2 km/h 55% 0 mm 0 W/m2
03:16 -0.7 °C -8.7 °C 1026.3 hPa ENE 3.2 km/h 3.2 km/h 55% 0 mm 0 W/m2
03:22 -0.7 °C -8.9 °C 1026 hPa East 3.2 km/h 3.2 km/h 54% 0 mm 0 W/m2
03:28 -0.8 °C -8.7 °C 1025.6 hPa East 1.6 km/h 3.2 km/h 55% 0 mm 0 W/m2
03:34 -0.8 °C -8.5 °C 1025.3 hPa Calm   1.6 km/h 56% 0 mm 0 W/m2
03:40 -0.7 °C -8.7 °C 1025.3 hPa ESE 1.6 km/h 3.2 km/h 55% 0 mm 0 W/m2
03:46 -0.6 °C -8.6 °C 1025.3 hPa East 1.6 km/h 3.2 km/h 55% 0 mm 0 W/m2
03:52 -0.6 °C -8.5 °C 1024.9 hPa East 1.6 km/h 3.2 km/h 55% 0 mm 0 W/m2
03:58 -0.7 °C -8.2 °C 1024.9 hPa East 1.6 km/h 3.2 km/h 57% 0 mm 0 W/m2
04:04 -0.6 °C -8.6 °C 1024.9 hPa East 1.6 km/h 3.2 km/h 55% 0 mm 0 W/m2
04:10 -0.7 °C -7.3 °C 1024.6 hPa East 1.6 km/h 3.2 km/h 61% 0 mm 0 W/m2
04:16 -0.7 °C -7.9 °C 1024.6 hPa East 1.6 km/h 3.2 km/h 58% 0 mm 0 W/m2
04:22 -0.3 °C -8.5 °C 1024.6 hPa East 1.6 km/h 3.2 km/h 54% 0 mm 0 W/m2
04:28 0 °C -8.9 °C 1024.6 hPa East 1.6 km/h 3.2 km/h 51% 0 mm 0 W/m2
04:34 -0.1 °C -7.8 °C 1024.6 hPa East 1.6 km/h 1.6 km/h 56% 0 mm 0 W/m2
04:39 0 °C -8.2 °C 1024.6 hPa SE 1.6 km/h 1.6 km/h 54% 0 mm 0 W/m2
04:46 0.1 °C -7.7 °C 1024.6 hPa SE 1.6 km/h 1.6 km/h 56% 0 mm 0 W/m2
04:52 0.9 °C -9.9 °C 1024.3 hPa South 3.2 km/h 4.8 km/h 44% 0 mm 0 W/m2
04:58 1.5 °C -10.1 °C 1024.3 hPa SE 4.8 km/h 6.4 km/h 42% 0 mm 0 W/m2
05:04 2.1 °C -9.8 °C 1023.6 hPa SE 6.4 km/h 6.4 km/h 41% 0 mm 0 W/m2
05:10 2.1 °C -10.1 °C 1023.6 hPa South 4.8 km/h 9.7 km/h 40% 0 mm 0 W/m2
05:16 2.3 °C -10.3 °C 1023.6 hPa SE 6.4 km/h 9.7 km/h 39% 0 mm 0 W/m2
05:22 2.2 °C -10.4 °C 1023.2 hPa East 4.8 km/h 6.4 km/h 39% 0 mm 0 W/m2
05:28 2.3 °C -9.9 °C 1023.6 hPa SSE 4.8 km/h 6.4 km/h 40% 0 mm 0 W/m2
05:33 2.4 °C -10.2 °C 1023.6 hPa SSE 4.8 km/h 8 km/h 39% 0 mm 0 W/m2
05:40 2.6 °C -10.3 °C 1023.6 hPa SE 6.4 km/h 6.4 km/h 38% 0 mm 0 W/m2
05:46 2.6 °C -9.7 °C 1023.2 hPa SSE 6.4 km/h 8 km/h 40% 0 mm 0 W/m2
05:52 2.6 °C -10.3 °C 1022.6 hPa SE 6.4 km/h 6.4 km/h 38% 0 mm 0 W/m2
05:58 2.7 °C -10.3 °C 1022.6 hPa ESE 6.4 km/h 8 km/h 38% 0 mm 0 W/m2
06:04 2.8 °C -10.4 °C 1023.2 hPa South 6.4 km/h 9.7 km/h 37% 0 mm 0 W/m2
06:10 2.9 °C -10.3 °C 1023.2 hPa SSE 6.4 km/h 6.4 km/h 37% 0 mm 0 W/m2
06:16 2.8 °C -10.1 °C 1023.2 hPa SE 6.4 km/h 6.4 km/h 38% 0 mm 0 W/m2
06:22 2.8 °C -9.8 °C 1023.2 hPa SE 4.8 km/h 6.4 km/h 39% 0 mm 0 W/m2
06:28 2.9 °C -10.1 °C 1023.2 hPa SSE 4.8 km/h 8 km/h 38% 0 mm 0 W/m2
06:34 2.9 °C -10.1 °C 1023.2 hPa SSE 3.2 km/h 3.2 km/h 38% 0 mm 0 W/m2
06:40 2.8 °C -9.2 °C 1023.2 hPa Calm   3.2 km/h 41% 0 mm 0 W/m2
06:46 2.2 °C -8.3 °C 1023.2 hPa Calm   3.2 km/h 46% 0 mm 0 W/m2
06:52 1.8 °C -8.3 °C 1022.9 hPa Calm     47% 0 mm 0 W/m2
06:58 1.7 °C -7.9 °C 1022.9 hPa Calm     49% 0 mm 0 W/m2
07:04 1.5 °C -7.8 °C 1023.2 hPa Calm     50% 0 mm 0 W/m2
07:10 1.2 °C -7.6 °C 1022.9 hPa Calm   1.6 km/h 52% 0 mm 0 W/m2
07:16 0.9 °C -7.6 °C 1022.9 hPa Calm   1.6 km/h 53% 0 mm 0 W/m2
07:22 0.9 °C -7.9 °C 1022.6 hPa Calm     52% 0 mm 0 W/m2
07:28 0.8 °C -7.7 °C 1022.6 hPa SSE 1.6 km/h 4.8 km/h 53% 0 mm 7 W/m2
07:34 1.3 °C -8.3 °C 1022.2 hPa SE 3.2 km/h 6.4 km/h 49% 0 mm 7 W/m2
07:40 2.1 °C -8.7 °C 1022.6 hPa SSE 3.2 km/h 3.2 km/h 45% 0 mm 7 W/m2
07:46 2.5 °C -8.3 °C 1022.6 hPa SSE 3.2 km/h 3.2 km/h 45% 0 mm 11 W/m2
07:52 2.6 °C -8.8 °C 1022.6 hPa SSE 1.6 km/h 3.2 km/h 43% 0 mm 11 W/m2
07:58 2.6 °C -8.4 °C 1022.6 hPa Calm   3.2 km/h 44% 0 mm 14 W/m2
08:04 2.6 °C -7.9 °C 1022.6 hPa SSE 1.6 km/h 6.4 km/h 46% 0 mm 14 W/m2
08:10 2.7 °C -7.6 °C 1022.6 hPa SE 1.6 km/h 3.2 km/h 47% 0 mm 18 W/m2
08:16 2.7 °C -8.1 °C 1022.2 hPa SE 1.6 km/h 3.2 km/h 45% 0 mm 28 W/m2
08:22 2.8 °C -7.7 °C 1022.2 hPa SE 1.6 km/h 4.8 km/h 46% 0 mm 28 W/m2
08:28 2.9 °C -7.6 °C 1022.2 hPa SE 1.6 km/h 4.8 km/h 46% 0 mm 23 W/m2
08:34 3.3 °C -6.9 °C 1022.2 hPa SW 3.2 km/h 4.8 km/h 47% 0 mm 21 W/m2
08:40 3.3 °C -5.8 °C 1022.2 hPa South 3.2 km/h 6.4 km/h 51% 0 mm 12 W/m2
08:46 3.4 °C -4.6 °C 1022.2 hPa SW 3.2 km/h 8 km/h 56% 0 mm 11 W/m2
08:52 3.4 °C -2.6 °C 1021.9 hPa West 4.8 km/h 6.4 km/h 65% 0 mm 9 W/m2
08:58 3.1 °C -2.1 °C 1021.6 hPa SW 4.8 km/h 14.5 km/h 69% 2.29 mm 12 W/m2
09:04 2.9 °C -1.7 °C 1021.9 hPa South 8 km/h 8 km/h 72% 2.03 mm 18 W/m2
09:10 2.6 °C -1.6 °C 1021.6 hPa SSW 6.4 km/h 6.4 km/h 74% 1.78 mm 39 W/m2
09:16 2.4 °C -1.6 °C 1021.2 hPa SSE 4.8 km/h 6.4 km/h 75% 1.27 mm 37 W/m2
09:22 2.1 °C -1.7 °C 1021.2 hPa SSE 6.4 km/h 11.3 km/h 76% 1.27 mm 26 W/m2
09:28 1.8 °C -1.7 °C 1020.9 hPa SSE 8 km/h 11.3 km/h 78% 1.27 mm 26 W/m2
09:34 1.6 °C -1.7 °C 1020.9 hPa South 6.4 km/h 8 km/h 79% 3.3 mm 18 W/m2
09:40 1.4 °C -1.7 °C 1020.9 hPa SE 6.4 km/h 6.4 km/h 80% 4.83 mm 25 W/m2
09:46 1.3 °C -1.4 °C 1020.9 hPa SSE 4.8 km/h 6.4 km/h 82% 4.32 mm 28 W/m2
09:52 1.3 °C -1.4 °C 1020.5 hPa South 6.4 km/h 9.7 km/h 82% 3.56 mm 42 W/m2
09:58 1.4 °C -1.2 °C 1020.5 hPa SE 6.4 km/h 9.7 km/h 83% 2.03 mm 39 W/m2
10:04 1.4 °C -1.2 °C 1020.2 hPa SSE 4.8 km/h 12.9 km/h 83% 1.27 mm 40 W/m2
10:10 1.4 °C -0.9 °C 1020.2 hPa SSE 4.8 km/h 4.8 km/h 84% 1.02 mm 46 W/m2
10:16 1.4 °C -0.8 °C 1019.9 hPa SE 4.8 km/h 4.8 km/h 85% 3.05 mm 47 W/m2
10:22 1.5 °C -0.7 °C 1020.2 hPa SSE 3.2 km/h 6.4 km/h 85% 1.78 mm 39 W/m2
10:28 1.5 °C -0.6 °C 1019.9 hPa SE 3.2 km/h 6.4 km/h 86% 2.03 mm 30 W/m2
10:34 1.6 °C -0.6 °C 1020.2 hPa SSE 3.2 km/h 4.8 km/h 86% 2.03 mm 33 W/m2
10:40 1.6 °C -0.4 °C 1019.9 hPa SSE 1.6 km/h 1.6 km/h 87% 1.27 mm 40 W/m2
10:46 1.6 °C -0.3 °C 1019.5 hPa SSE 1.6 km/h 1.6 km/h 87% 0 mm 49 W/m2
10:52 1.7 °C -0.1 °C 1019.2 hPa ESE 1.6 km/h 3.2 km/h 88% 0 mm 53 W/m2
10:58 1.9 °C 0.1 °C 1019.2 hPa ESE 1.6 km/h 4.8 km/h 88% 0 mm 60 W/m2
11:04 2 °C 0.2 °C 1019.2 hPa ESE 1.6 km/h 3.2 km/h 88% 0 mm 58 W/m2
11:10 2.1 °C 0.3 °C 1019.2 hPa Calm     88% 0 mm 72 W/m2
11:16 2.1 °C 0.3 °C 1019.2 hPa Calm     88% 0 mm 63 W/m2
11:22 2.2 °C 0.6 °C 1019.2 hPa Calm   1.6 km/h 89% 0 mm 54 W/m2
11:28 2.1 °C 0.5 °C 1018.8 hPa Calm   3.2 km/h 89% 0 mm 88 W/m2
11:34 2.4 °C 0.9 °C 1018.8 hPa ESE 1.6 km/h 1.6 km/h 90% 0 mm 125 W/m2
11:40 2.8 °C 1.3 °C 1018.5 hPa ESE 1.6 km/h 1.6 km/h 90% 0 mm 118 W/m2
11:46 3.1 °C 1.6 °C 1018.5 hPa Calm   3.2 km/h 90% 0 mm 76 W/m2
11:52 3.2 °C 1.7 °C 1018.5 hPa Calm     90% 0 mm 65 W/m2
11:58 3.2 °C 1.7 °C 1018.2 hPa Calm     90% 0 mm 72 W/m2
12:04 3.2 °C 1.7 °C 1018.2 hPa ESE 1.6 km/h 3.2 km/h 90% 0 mm 95 W/m2
12:10 3.4 °C 1.9 °C 1018.2 hPa Calm     90% 0 mm 144 W/m2
12:15 3.6 °C 2.1 °C 1017.5 hPa Calm     90% 0 mm 174 W/m2
12:22 3.8 °C 2.3 °C 1017.5 hPa Calm     90% 0 mm 169 W/m2
12:28 4.1 °C 2.4 °C 1017.2 hPa SE 1.6 km/h 1.6 km/h 89% 0 mm 204 W/m2
12:34 4.3 °C 2.6 °C 1017.2 hPa SE 1.6 km/h 1.6 km/h 89% 0 mm 62 W/m2
12:40 4.3 °C 2.5 °C 1017.2 hPa Calm     88% 0 mm 60 W/m2
12:46 4.3 °C 2.3 °C 1017.2 hPa Calm     87% 0 mm 76 W/m2
12:52 4.3 °C 2.3 °C 1017.2 hPa Calm     87% 0 mm 69 W/m2
12:58 4.3 °C 2.3 °C 1016.8 hPa Calm     87% 0 mm 76 W/m2
13:04 4.2 °C 2.2 °C 1016.5 hPa Calm   1.6 km/h 87% 0 mm 76 W/m2
13:10 4.3 °C 2.3 °C 1016.8 hPa East 1.6 km/h 3.2 km/h 87% 0 mm 72 W/m2
13:16 4.4 °C 2.4 °C 1016.8 hPa East 1.6 km/h 3.2 km/h 87% 0 mm 67 W/m2
13:22 4.3 °C 2.3 °C 1016.5 hPa Calm   3.2 km/h 87% 0 mm 62 W/m2
13:28 4.2 °C 2.2 °C 1016.5 hPa Calm   3.2 km/h 87% 0 mm 95 W/m2
13:34 4.3 °C 2.3 °C 1016.1 hPa Calm   1.6 km/h 87% 0 mm 123 W/m2
13:40 4.6 °C 2.6 °C 1016.1 hPa Calm     87% 0 mm 176 W/m2
13:46 5.1 °C 3.1 °C 1015.8 hPa ESE 1.6 km/h 1.6 km/h 87% 0 mm 236 W/m2
13:52 5.5 °C 3 °C 1016.1 hPa SE 1.6 km/h 1.6 km/h 84% 0 mm 193 W/m2
14:00 5.8 °C 3.2 °C 1015.8 hPa Calm   3.2 km/h 83% 0 mm 178 W/m2
14:06 6.1 °C 3.2 °C 1015.8 hPa SE 1.6 km/h 3.2 km/h 82% 0 mm 193 W/m2
14:12 6.2 °C 3.2 °C 1015.8 hPa SE 1.6 km/h 1.6 km/h 81% 0 mm 176 W/m2
14:18 6.3 °C 3.1 °C 1015.8 hPa SE 1.6 km/h 3.2 km/h 80% 0 mm 105 W/m2
14:24 6.3 °C 3.1 °C 1015.5 hPa SE 1.6 km/h 3.2 km/h 80% 0 mm 123 W/m2
14:30 6.2 °C 2.8 °C 1015.5 hPa Calm     79% 0 mm 105 W/m2
14:36 6.2 °C 2.8 °C 1015.5 hPa SE 1.6 km/h 1.6 km/h 79% 0 mm 104 W/m2
14:42 6.3 °C 2.7 °C 1015.1 hPa Calm     78% 0 mm 88 W/m2
14:48 6.2 °C 2.6 °C 1015.1 hPa SE 1.6 km/h 1.6 km/h 78% 0 mm 86 W/m2
14:54 6.3 °C 2.7 °C 1015.1 hPa SE 1.6 km/h 1.6 km/h 78% 0 mm 114 W/m2
15:00 6.4 °C 2.8 °C 1015.1 hPa Calm     78% 0 mm 81 W/m2
15:06 6.3 °C 2.9 °C 1014.8 hPa Calm     79% 0 mm 81 W/m2
15:12 6.3 °C 2.8 °C 1014.4 hPa Calm   3.2 km/h 78% 0 mm 113 W/m2
15:18 6.5 °C 2.9 °C 1014.4 hPa SE 1.6 km/h 3.2 km/h 78% 0 mm 246 W/m2
15:24 6.7 °C 3.2 °C 1014.4 hPa SE 1.6 km/h 1.6 km/h 78% 0 mm 202 W/m2
15:30 7.1 °C 3.1 °C 1014.4 hPa ESE 1.6 km/h 3.2 km/h 76% 0 mm 223 W/m2
15:36 7.3 °C 3.1 °C 1014.1 hPa SSE 3.2 km/h 6.4 km/h 75% 0 mm 179 W/m2
15:42 7.3 °C 3 °C 1014.1 hPa SE 3.2 km/h 4.8 km/h 74% 0 mm 142 W/m2
15:48 7.4 °C 3.1 °C 1014.1 hPa SE 3.2 km/h 4.8 km/h 74% 0 mm 153 W/m2
15:54 7.5 °C 2.9 °C 1014.1 hPa SE 1.6 km/h 3.2 km/h 73% 0 mm 116 W/m2
16:00 7.5 °C 2.9 °C 1013.8 hPa SE 1.6 km/h 1.6 km/h 73% 0 mm 113 W/m2
16:06 7.6 °C 3 °C 1013.8 hPa SE 1.6 km/h 3.2 km/h 73% 0 mm 65 W/m2
16:12 7.5 °C 2.9 °C 1013.8 hPa Calm     73% 0 mm 121 W/m2
16:18 7.4 °C 3.1 °C 1013.8 hPa SSE 1.6 km/h 4.8 km/h 74% 0 mm 104 W/m2
16:24 7.6 °C 3 °C 1013.8 hPa SSE 1.6 km/h 3.2 km/h 73% 0 mm 84 W/m2
16:30 7.6 °C 3.2 °C 1013.8 hPa Calm     74% 0 mm 84 W/m2
16:36 7.6 °C 3.2 °C 1013.8 hPa Calm     74% 0 mm 97 W/m2
16:42 7.3 °C 3.2 °C 1013.8 hPa Calm     75% 0 mm 72 W/m2
16:48 7.2 °C 3.4 °C 1013.4 hPa Calm   3.2 km/h 77% 0 mm 67 W/m2
16:54 7.2 °C 3.3 °C 1013.4 hPa Calm   1.6 km/h 76% 0 mm 54 W/m2
17:00 7.3 °C 3.2 °C 1013.4 hPa SSE 1.6 km/h 1.6 km/h 75% 0 mm 42 W/m2
17:06 7.4 °C 3.2 °C 1013.4 hPa SSE 1.6 km/h 3.2 km/h 75% 0 mm 53 W/m2
17:12 7.6 °C 3.4 °C 1013.4 hPa SE 1.6 km/h 3.2 km/h 75% 0 mm 56 W/m2
17:18 7.6 °C 3.2 °C 1013.1 hPa SE 1.6 km/h 3.2 km/h 74% 0 mm 37 W/m2
17:24 7.6 °C 3.2 °C 1013.1 hPa Calm   4.8 km/h 74% 0 mm 42 W/m2
17:30 7.7 °C 3.3 °C 1013.1 hPa SE 1.6 km/h 1.6 km/h 74% 0 mm 47 W/m2
17:36 7.8 °C 3.2 °C 1013.1 hPa SE 1.6 km/h 1.6 km/h 73% 0 mm 32 W/m2
17:42 7.6 °C 3.3 °C 1013.1 hPa Calm     74% 0 mm 35 W/m2
17:48 7.3 °C 2.9 °C 1013.1 hPa Calm     74% 0 mm 53 W/m2
17:54 6.8 °C 2.9 °C 1013.1 hPa Calm     76% 0 mm 30 W/m2
18:00 6.2 °C 2.2 °C 1013.4 hPa NNW 1.6 km/h 1.6 km/h 76% 0 mm 21 W/m2
18:06 5.4 °C 2.1 °C 1013.4 hPa NNW 3.2 km/h 3.2 km/h 79% 0 mm 12 W/m2
18:12 5.3 °C 2.1 °C 1013.4 hPa Calm   1.6 km/h 80% 0 mm 7 W/m2
18:18 4.9 °C 1.8 °C 1013.8 hPa Calm   3.2 km/h 80% 0 mm 7 W/m2
18:24 4.6 °C 1.6 °C 1013.4 hPa NNW 1.6 km/h 3.2 km/h 81% 0 mm 7 W/m2
18:30 4.3 °C 1.6 °C 1013.8 hPa NNW 1.6 km/h 1.6 km/h 82% 0 mm 9 W/m2
18:36 4.1 °C 1.3 °C 1013.8 hPa NNW 1.6 km/h 1.6 km/h 82% 0 mm 5 W/m2
18:42 4.1 °C 1.7 °C 1013.8 hPa Calm     84% 0 mm 0 W/m2
18:48 4 °C 1.4 °C 1013.8 hPa Calm     83% 0 mm 0 W/m2
18:54 3.9 °C 1.3 °C 1013.8 hPa Calm   3.2 km/h 83% 0 mm 0 W/m2
19:00 3.6 °C 1 °C 1014.1 hPa Calm   1.6 km/h 83% 0 mm 0 W/m2
19:06 3.6 °C 1.2 °C 1014.1 hPa Calm   3.2 km/h 84% 0 mm 0 W/m2
19:12 3.5 °C 1.2 °C 1014.4 hPa Calm     85% 0 mm 0 W/m2
19:18 3.5 °C 1.2 °C 1014.4 hPa Calm   3.2 km/h 85% 0 mm 0 W/m2
19:24 3.5 °C 1.2 °C 1014.8 hPa NNW 1.6 km/h 3.2 km/h 85% 0 mm 0 W/m2
19:30 3.4 °C 1.2 °C 1014.8 hPa NNW 3.2 km/h 3.2 km/h 85% 0 mm 0 W/m2
19:36 3.6 °C 1.4 °C 1014.8 hPa NNW 1.6 km/h 3.2 km/h 86% 0 mm 0 W/m2
19:42 3.6 °C 1.5 °C 1014.8 hPa NNW 1.6 km/h 1.6 km/h 86% 0 mm 0 W/m2
19:48 3.8 °C 1.7 °C 1014.8 hPa Calm   4.8 km/h 86% 0 mm 0 W/m2
19:54 3.9 °C 1.6 °C 1015.1 hPa NNW 1.6 km/h 4.8 km/h 85% 0 mm 0 W/m2
20:00 4.1 °C 1.8 °C 1014.8 hPa NNW 1.6 km/h 1.6 km/h 85% 0 mm 0 W/m2
20:06 4.1 °C 1.8 °C 1015.5 hPa NNW 1.6 km/h 3.2 km/h 85% 0 mm 0 W/m2
20:12 4.2 °C 1.9 °C 1015.5 hPa NNW 1.6 km/h 6.4 km/h 85% 0 mm 0 W/m2
20:18 4.4 °C 1.9 °C 1015.5 hPa North 4.8 km/h 6.4 km/h 84% 0 mm 0 W/m2
20:24 4.4 °C 1.9 °C 1015.8 hPa North 3.2 km/h 4.8 km/h 84% 0 mm 0 W/m2
20:26 4.4 °C 2 °C 1015.8 hPa North 1.6 km/h 4.8 km/h 84% 0 mm 0 W/m2
20:32 4.4 °C 1.8 °C 1015.8 hPa North 1.6 km/h 1.6 km/h 83% 0 mm 0 W/m2
20:38 4.3 °C 1.9 °C 1015.8 hPa Calm   1.6 km/h 84% 0 mm 0 W/m2
20:44 4.3 °C 1.8 °C 1015.8 hPa Calm     84% 0 mm 0 W/m2
20:50 4.3 °C 1.8 °C 1016.1 hPa Calm     84% 0 mm 0 W/m2
20:56 4.2 °C 1.7 °C 1016.5 hPa Calm     84% 0 mm 0 W/m2
21:02 4.1 °C 1.6 °C 1016.5 hPa Calm     84% 0 mm 0 W/m2
21:08 3.9 °C 1.7 °C 1016.5 hPa Calm     85% 0 mm 0 W/m2
21:14 3.9 °C 1.7 °C 1016.8 hPa Calm     85% 0 mm 0 W/m2
21:20 3.8 °C 1.5 °C 1016.8 hPa Calm     85% 0 mm 0 W/m2
21:26 3.7 °C 1.4 °C 1016.8 hPa Calm     85% 0 mm 0 W/m2
21:32 3.5 °C 1.2 °C 1016.8 hPa Calm     85% 0 mm 0 W/m2
21:38 3.4 °C 1.3 °C 1016.8 hPa Calm     86% 0 mm 0 W/m2
21:44 3.4 °C 1.3 °C 1016.8 hPa Calm     86% 0 mm 0 W/m2
21:50 3.6 °C 1.6 °C 1016.8 hPa Calm     87% 0 mm 0 W/m2
21:56 3.5 °C 1.6 °C 1016.8 hPa Calm     87% 0 mm 0 W/m2
22:02 3.4 °C 1.5 °C 1016.8 hPa Calm     87% 0 mm 0 W/m2
22:08 3.4 °C 1.4 °C 1016.8 hPa Calm     87% 0 mm 0 W/m2
22:14 3.3 °C 1.4 °C 1017.2 hPa Calm     87% 0 mm 0 W/m2
22:20 3.3 °C 1.4 °C 1017.5 hPa Calm     87% 0 mm 0 W/m2
22:26 3.3 °C 1.3 °C 1017.5 hPa Calm     87% 0 mm 0 W/m2
22:32 3.2 °C 1.3 °C 1017.5 hPa Calm     87% 0 mm 0 W/m2
22:38 3.2 °C 1.2 °C 1017.8 hPa Calm     87% 0 mm 0 W/m2
22:44 3.1 °C 1.2 °C 1017.8 hPa Calm     87% 0 mm 0 W/m2
22:50 3 °C 1.1 °C 1017.8 hPa Calm     87% 0 mm 0 W/m2
22:56 2.8 °C 1.1 °C 1017.5 hPa Calm   1.6 km/h 88% 0 mm 0 W/m2
23:02 3.2 °C 1.4 °C 1017.5 hPa Calm     88% 0 mm 0 W/m2
23:08 3.2 °C 1.4 °C 1017.5 hPa Calm     88% 0 mm 0 W/m2
23:14 3.1 °C 1.3 °C 1017.5 hPa Calm     88% 0 mm 0 W/m2
23:20 3.1 °C 1.3 °C 1017.5 hPa Calm     88% 0 mm 0 W/m2
23:26 2.9 °C 1.2 °C 1017.5 hPa Calm     88% 0 mm 0 W/m2
23:32 2.9 °C 1.2 °C 1017.5 hPa Calm     88% 0 mm 0 W/m2
23:38 2.9 °C 1.2 °C 1017.5 hPa Calm     88% 0 mm 0 W/m2
23:44 2.9 °C 1.2 °C 1017.5 hPa Calm     88% 0 mm 0 W/m2
23:50 2.9 °C 1.2 °C 1017.5 hPa Calm     88% 0 mm 0 W/m2
23:56 2.8 °C 1.1 °C 1017.8 hPa Calm     88% 0 mm 0 W/m2
Country Meadow, Clay, NY, USA
Compliments of Weather Underground - 2 mb